sensor_id;sensor_type;location;lat;lon;timestamp;temperature;humidity
42227;DHT22;27892;52.378;13.122;2023-02-15T00:01:41;3.90;66.30
42227;DHT22;27892;52.378;13.122;2023-02-15T00:04:09;3.90;66.00
42227;DHT22;27892;52.378;13.122;2023-02-15T00:06:35;3.80;66.00
42227;DHT22;27892;52.378;13.122;2023-02-15T00:09:01;3.80;66.20
42227;DHT22;27892;52.378;13.122;2023-02-15T00:11:28;3.80;66.10
42227;DHT22;27892;52.378;13.122;2023-02-15T00:14:15;3.80;66.10
42227;DHT22;27892;52.378;13.122;2023-02-15T00:16:42;3.80;66.20
42227;DHT22;27892;52.378;13.122;2023-02-15T00:19:10;3.70;66.20
42227;DHT22;27892;52.378;13.122;2023-02-15T00:21:36;3.70;66.20
42227;DHT22;27892;52.378;13.122;2023-02-15T00:24:04;3.70;66.10
42227;DHT22;27892;52.378;13.122;2023-02-15T00:26:30;3.60;66.00
42227;DHT22;27892;52.378;13.122;2023-02-15T00:28:57;3.60;66.30
42227;DHT22;27892;52.378;13.122;2023-02-15T00:31:29;3.60;66.40
42227;DHT22;27892;52.378;13.122;2023-02-15T00:34:04;3.60;66.40
42227;DHT22;27892;52.378;13.122;2023-02-15T00:36:30;3.60;66.20
42227;DHT22;27892;52.378;13.122;2023-02-15T00:38:56;3.60;66.10
42227;DHT22;27892;52.378;13.122;2023-02-15T00:41:22;3.60;66.20
42227;DHT22;27892;52.378;13.122;2023-02-15T00:43:47;3.60;66.10
42227;DHT22;27892;52.378;13.122;2023-02-15T00:46:13;3.50;66.00
42227;DHT22;27892;52.378;13.122;2023-02-15T00:48:39;3.50;66.20
42227;DHT22;27892;52.378;13.122;2023-02-15T00:51:04;3.50;66.20
42227;DHT22;27892;52.378;13.122;2023-02-15T00:53:30;3.40;66.20
42227;DHT22;27892;52.378;13.122;2023-02-15T00:55:57;3.40;66.20
42227;DHT22;27892;52.378;13.122;2023-02-15T00:58:23;3.40;66.20
42227;DHT22;27892;52.378;13.122;2023-02-15T01:00:49;3.40;66.40
42227;DHT22;27892;52.378;13.122;2023-02-15T01:03:16;3.40;66.60
42227;DHT22;27892;52.378;13.122;2023-02-15T01:05:42;3.40;66.50
42227;DHT22;27892;52.378;13.122;2023-02-15T01:08:08;3.40;66.50
42227;DHT22;27892;52.378;13.122;2023-02-15T01:10:35;3.40;66.60
42227;DHT22;27892;52.378;13.122;2023-02-15T01:13:01;3.50;66.60
42227;DHT22;27892;52.378;13.122;2023-02-15T01:15:27;3.50;66.10
42227;DHT22;27892;52.378;13.122;2023-02-15T01:17:53;3.50;66.00
42227;DHT22;27892;52.378;13.122;2023-02-15T01:20:26;3.40;65.80
42227;DHT22;27892;52.378;13.122;2023-02-15T01:22:53;3.30;65.70
42227;DHT22;27892;52.378;13.122;2023-02-15T01:25:20;3.30;65.90
42227;DHT22;27892;52.378;13.122;2023-02-15T01:27:46;3.20;65.90
42227;DHT22;27892;52.378;13.122;2023-02-15T01:30:13;3.20;66.30
42227;DHT22;27892;52.378;13.122;2023-02-15T01:32:38;3.20;66.50
42227;DHT22;27892;52.378;13.122;2023-02-15T01:35:05;3.20;66.30
42227;DHT22;27892;52.378;13.122;2023-02-15T01:37:32;3.20;66.20
42227;DHT22;27892;52.378;13.122;2023-02-15T01:39:57;3.20;66.20
42227;DHT22;27892;52.378;13.122;2023-02-15T01:42:27;3.20;66.20
42227;DHT22;27892;52.378;13.122;2023-02-15T01:44:59;3.20;65.90
42227;DHT22;27892;52.378;13.122;2023-02-15T01:50:06;3.10;65.70
42227;DHT22;27892;52.378;13.122;2023-02-15T01:52:37;3.10;66.00
42227;DHT22;27892;52.378;13.122;2023-02-15T01:55:06;3.00;65.90
42227;DHT22;27892;52.378;13.122;2023-02-15T01:57:33;3.00;66.00
42227;DHT22;27892;52.378;13.122;2023-02-15T02:00:01;3.00;66.00
42227;DHT22;27892;52.378;13.122;2023-02-15T02:02:28;3.00;65.90
42227;DHT22;27892;52.378;13.122;2023-02-15T02:04:59;2.90;66.00
42227;DHT22;27892;52.378;13.122;2023-02-15T02:07:30;2.90;65.90
42227;DHT22;27892;52.378;13.122;2023-02-15T02:09:57;2.90;65.90
42227;DHT22;27892;52.378;13.122;2023-02-15T02:12:24;2.90;66.00
42227;DHT22;27892;52.378;13.122;2023-02-15T02:14:51;2.80;65.80
42227;DHT22;27892;52.378;13.122;2023-02-15T02:23:24;2.80;66.20
42227;DHT22;27892;52.378;13.122;2023-02-15T02:28:47;2.70;66.20
42227;DHT22;27892;52.378;13.122;2023-02-15T02:34:17;2.80;66.50
42227;DHT22;27892;52.378;13.122;2023-02-15T02:37:01;2.80;66.30
42227;DHT22;27892;52.378;13.122;2023-02-15T02:39:49;2.80;66.20
42227;DHT22;27892;52.378;13.122;2023-02-15T02:42:29;2.80;66.00
42227;DHT22;27892;52.378;13.122;2023-02-15T02:45:15;2.80;66.10
42227;DHT22;27892;52.378;13.122;2023-02-15T02:50:16;2.80;66.00
42227;DHT22;27892;52.378;13.122;2023-02-15T02:52:45;2.80;65.60
42227;DHT22;27892;52.378;13.122;2023-02-15T02:57:53;2.70;65.70
42227;DHT22;27892;52.378;13.122;2023-02-15T03:00:21;2.70;65.60
42227;DHT22;27892;52.378;13.122;2023-02-15T03:02:52;2.70;65.80
42227;DHT22;27892;52.378;13.122;2023-02-15T03:05:23;2.70;65.60
42227;DHT22;27892;52.378;13.122;2023-02-15T03:07:52;2.60;65.40
42227;DHT22;27892;52.378;13.122;2023-02-15T03:10:22;2.60;65.40
42227;DHT22;27892;52.378;13.122;2023-02-15T03:12:49;2.60;65.20
42227;DHT22;27892;52.378;13.122;2023-02-15T03:15:26;2.50;65.30
42227;DHT22;27892;52.378;13.122;2023-02-15T03:18:16;2.50;65.60
42227;DHT22;27892;52.378;13.122;2023-02-15T03:20:44;2.50;65.80
42227;DHT22;27892;52.378;13.122;2023-02-15T03:23:14;2.50;65.50
42227;DHT22;27892;52.378;13.122;2023-02-15T03:25:50;2.50;65.40
42227;DHT22;27892;52.378;13.122;2023-02-15T03:28:21;2.40;65.10
42227;DHT22;27892;52.378;13.122;2023-02-15T03:30:52;2.40;65.40
42227;DHT22;27892;52.378;13.122;2023-02-15T03:33:20;2.40;66.40
42227;DHT22;27892;52.378;13.122;2023-02-15T03:36:04;2.40;65.70
42227;DHT22;27892;52.378;13.122;2023-02-15T03:38:44;2.50;65.70
42227;DHT22;27892;52.378;13.122;2023-02-15T03:41:11;2.50;65.60
42227;DHT22;27892;52.378;13.122;2023-02-15T03:46:28;2.50;65.50
42227;DHT22;27892;52.378;13.122;2023-02-15T03:49:03;2.50;65.20
42227;DHT22;27892;52.378;13.122;2023-02-15T03:51:33;2.40;64.90
42227;DHT22;27892;52.378;13.122;2023-02-15T03:54:17;2.40;65.10
42227;DHT22;27892;52.378;13.122;2023-02-15T03:57:23;2.40;65.40
42227;DHT22;27892;52.378;13.122;2023-02-15T04:00:26;2.40;65.20
42227;DHT22;27892;52.378;13.122;2023-02-15T04:03:39;2.40;65.10
42227;DHT22;27892;52.378;13.122;2023-02-15T04:06:06;2.40;65.10
42227;DHT22;27892;52.378;13.122;2023-02-15T04:08:32;2.40;65.10
42227;DHT22;27892;52.378;13.122;2023-02-15T04:11:17;2.40;65.00
42227;DHT22;27892;52.378;13.122;2023-02-15T04:13:42;2.40;65.00
42227;DHT22;27892;52.378;13.122;2023-02-15T04:16:09;2.40;64.90
42227;DHT22;27892;52.378;13.122;2023-02-15T04:18:40;2.30;64.60
42227;DHT22;27892;52.378;13.122;2023-02-15T04:21:26;2.30;64.90
42227;DHT22;27892;52.378;13.122;2023-02-15T04:24:11;2.20;65.00
42227;DHT22;27892;52.378;13.122;2023-02-15T04:26:56;2.30;65.20
42227;DHT22;27892;52.378;13.122;2023-02-15T04:29:23;2.30;65.30
42227;DHT22;27892;52.378;13.122;2023-02-15T04:31:50;2.40;65.30
42227;DHT22;27892;52.378;13.122;2023-02-15T04:34:16;2.50;64.90
42227;DHT22;27892;52.378;13.122;2023-02-15T04:36:42;2.50;64.80
42227;DHT22;27892;52.378;13.122;2023-02-15T04:39:09;2.50;65.00
42227;DHT22;27892;52.378;13.122;2023-02-15T04:41:37;2.50;65.20
42227;DHT22;27892;52.378;13.122;2023-02-15T04:44:03;2.60;65.40
42227;DHT22;27892;52.378;13.122;2023-02-15T04:46:29;2.70;65.30
42227;DHT22;27892;52.378;13.122;2023-02-15T04:48:56;2.90;65.30
42227;DHT22;27892;52.378;13.122;2023-02-15T04:51:22;3.00;65.00
42227;DHT22;27892;52.378;13.122;2023-02-15T04:53:48;3.10;64.90
42227;DHT22;27892;52.378;13.122;2023-02-15T04:56:14;3.10;64.60
42227;DHT22;27892;52.378;13.122;2023-02-15T04:58:39;3.20;64.60
42227;DHT22;27892;52.378;13.122;2023-02-15T05:01:09;3.20;64.80
42227;DHT22;27892;52.378;13.122;2023-02-15T05:03:35;3.30;65.10
42227;DHT22;27892;52.378;13.122;2023-02-15T05:06:02;3.30;64.90
42227;DHT22;27892;52.378;13.122;2023-02-15T05:08:28;3.30;65.10
42227;DHT22;27892;52.378;13.122;2023-02-15T05:10:53;3.30;65.90
42227;DHT22;27892;52.378;13.122;2023-02-15T05:13:19;3.30;66.50
42227;DHT22;27892;52.378;13.122;2023-02-15T05:15:51;3.40;66.70
42227;DHT22;27892;52.378;13.122;2023-02-15T05:18:19;3.50;66.50
42227;DHT22;27892;52.378;13.122;2023-02-15T05:20:44;3.40;67.40
42227;DHT22;27892;52.378;13.122;2023-02-15T05:23:11;3.40;67.90
42227;DHT22;27892;52.378;13.122;2023-02-15T05:25:36;3.40;68.00
42227;DHT22;27892;52.378;13.122;2023-02-15T05:28:21;3.50;68.20
42227;DHT22;27892;52.378;13.122;2023-02-15T05:30:49;3.60;68.20
42227;DHT22;27892;52.378;13.122;2023-02-15T05:33:15;3.60;68.40
42227;DHT22;27892;52.378;13.122;2023-02-15T05:35:41;3.70;68.40
42227;DHT22;27892;52.378;13.122;2023-02-15T05:38:07;3.60;68.10
42227;DHT22;27892;52.378;13.122;2023-02-15T05:40:33;3.70;68.30
42227;DHT22;27892;52.378;13.122;2023-02-15T05:42:59;3.70;68.40
42227;DHT22;27892;52.378;13.122;2023-02-15T05:45:25;3.60;68.10
42227;DHT22;27892;52.378;13.122;2023-02-15T05:47:51;3.50;68.20
42227;DHT22;27892;52.378;13.122;2023-02-15T05:50:17;3.50;68.70
42227;DHT22;27892;52.378;13.122;2023-02-15T05:52:43;3.50;69.20
42227;DHT22;27892;52.378;13.122;2023-02-15T05:55:09;3.60;68.70
42227;DHT22;27892;52.378;13.122;2023-02-15T05:57:35;3.60;68.90
42227;DHT22;27892;52.378;13.122;2023-02-15T06:00:03;3.60;68.70
42227;DHT22;27892;52.378;13.122;2023-02-15T06:02:33;3.40;68.80
42227;DHT22;27892;52.378;13.122;2023-02-15T06:04:58;3.30;69.50
42227;DHT22;27892;52.378;13.122;2023-02-15T06:07:24;3.30;69.70
42227;DHT22;27892;52.378;13.122;2023-02-15T06:09:50;3.40;69.90
42227;DHT22;27892;52.378;13.122;2023-02-15T06:12:16;3.20;69.70
42227;DHT22;27892;52.378;13.122;2023-02-15T06:14:41;3.20;70.10
42227;DHT22;27892;52.378;13.122;2023-02-15T06:17:07;3.30;70.70
42227;DHT22;27892;52.378;13.122;2023-02-15T06:19:33;3.40;70.40
42227;DHT22;27892;52.378;13.122;2023-02-15T06:21:59;3.50;70.10
42227;DHT22;27892;52.378;13.122;2023-02-15T06:24:24;3.50;69.90
42227;DHT22;27892;52.378;13.122;2023-02-15T06:26:50;3.60;69.70
42227;DHT22;27892;52.378;13.122;2023-02-15T06:29:16;3.60;69.60
42227;DHT22;27892;52.378;13.122;2023-02-15T06:31:42;3.50;69.40
42227;DHT22;27892;52.378;13.122;2023-02-15T06:34:08;3.50;70.40
42227;DHT22;27892;52.378;13.122;2023-02-15T06:36:33;3.50;70.20
42227;DHT22;27892;52.378;13.122;2023-02-15T06:38:59;3.60;69.60
42227;DHT22;27892;52.378;13.122;2023-02-15T06:41:25;3.50;69.60
42227;DHT22;27892;52.378;13.122;2023-02-15T06:43:50;3.50;69.80
42227;DHT22;27892;52.378;13.122;2023-02-15T06:46:16;3.40;69.70
42227;DHT22;27892;52.378;13.122;2023-02-15T06:48:42;3.30;70.20
42227;DHT22;27892;52.378;13.122;2023-02-15T06:51:08;3.30;70.50
42227;DHT22;27892;52.378;13.122;2023-02-15T06:53:33;3.20;70.90
42227;DHT22;27892;52.378;13.122;2023-02-15T06:56:06;3.30;71.30
42227;DHT22;27892;52.378;13.122;2023-02-15T06:58:35;3.50;71.50
42227;DHT22;27892;52.378;13.122;2023-02-15T07:01:01;3.40;70.00
42227;DHT22;27892;52.378;13.122;2023-02-15T07:03:26;3.40;70.20
42227;DHT22;27892;52.378;13.122;2023-02-15T07:05:56;3.30;70.80
42227;DHT22;27892;52.378;13.122;2023-02-15T07:08:22;3.30;71.10
42227;DHT22;27892;52.378;13.122;2023-02-15T07:10:52;3.30;71.20
42227;DHT22;27892;52.378;13.122;2023-02-15T07:13:19;3.40;71.30
42227;DHT22;27892;52.378;13.122;2023-02-15T07:15:47;3.30;70.70
42227;DHT22;27892;52.378;13.122;2023-02-15T07:18:13;3.30;71.50
42227;DHT22;27892;52.378;13.122;2023-02-15T07:20:39;3.40;72.20
42227;DHT22;27892;52.378;13.122;2023-02-15T07:23:07;3.50;71.50
42227;DHT22;27892;52.378;13.122;2023-02-15T07:25:34;3.60;72.00
42227;DHT22;27892;52.378;13.122;2023-02-15T07:28:04;3.70;71.40
42227;DHT22;27892;52.378;13.122;2023-02-15T07:30:30;3.80;71.80
42227;DHT22;27892;52.378;13.122;2023-02-15T07:32:57;3.90;71.20
42227;DHT22;27892;52.378;13.122;2023-02-15T07:35:51;3.90;70.40
42227;DHT22;27892;52.378;13.122;2023-02-15T07:38:18;3.90;70.70
42227;DHT22;27892;52.378;13.122;2023-02-15T07:40:44;4.00;71.40
42227;DHT22;27892;52.378;13.122;2023-02-15T07:43:11;4.00;71.10
42227;DHT22;27892;52.378;13.122;2023-02-15T07:45:37;4.10;71.10
42227;DHT22;27892;52.378;13.122;2023-02-15T07:48:03;4.20;71.40
42227;DHT22;27892;52.378;13.122;2023-02-15T07:50:30;4.20;70.60
42227;DHT22;27892;52.378;13.122;2023-02-15T07:52:56;4.30;70.70
42227;DHT22;27892;52.378;13.122;2023-02-15T07:55:21;4.40;70.70
42227;DHT22;27892;52.378;13.122;2023-02-15T07:57:49;4.50;71.00
42227;DHT22;27892;52.378;13.122;2023-02-15T08:00:19;4.60;71.00
42227;DHT22;27892;52.378;13.122;2023-02-15T08:02:53;4.60;69.60
42227;DHT22;27892;52.378;13.122;2023-02-15T08:05:38;4.50;69.50
42227;DHT22;27892;52.378;13.122;2023-02-15T08:08:04;4.50;70.20
42227;DHT22;27892;52.378;13.122;2023-02-15T08:10:30;4.60;69.60
42227;DHT22;27892;52.378;13.122;2023-02-15T08:13:14;4.60;69.40
42227;DHT22;27892;52.378;13.122;2023-02-15T08:15:48;4.70;69.30
42227;DHT22;27892;52.378;13.122;2023-02-15T08:18:14;4.70;69.30
42227;DHT22;27892;52.378;13.122;2023-02-15T08:20:39;4.60;68.30
42227;DHT22;27892;52.378;13.122;2023-02-15T08:23:05;4.70;68.80
42227;DHT22;27892;52.378;13.122;2023-02-15T08:25:32;4.70;69.10
42227;DHT22;27892;52.378;13.122;2023-02-15T08:27:58;4.40;68.00
42227;DHT22;27892;52.378;13.122;2023-02-15T08:30:23;4.40;69.10
42227;DHT22;27892;52.378;13.122;2023-02-15T08:32:49;4.50;68.90
42227;DHT22;27892;52.378;13.122;2023-02-15T08:35:14;4.50;69.90
42227;DHT22;27892;52.378;13.122;2023-02-15T08:37:40;4.80;70.00
42227;DHT22;27892;52.378;13.122;2023-02-15T08:40:06;5.00;68.80
42227;DHT22;27892;52.378;13.122;2023-02-15T08:42:33;4.90;67.20
42227;DHT22;27892;52.378;13.122;2023-02-15T08:44:59;5.00;68.50
42227;DHT22;27892;52.378;13.122;2023-02-15T08:47:25;5.20;68.60
42227;DHT22;27892;52.378;13.122;2023-02-15T08:49:50;5.40;67.30
42227;DHT22;27892;52.378;13.122;2023-02-15T08:52:17;5.10;66.60
42227;DHT22;27892;52.378;13.122;2023-02-15T08:54:43;5.20;68.20
42227;DHT22;27892;52.378;13.122;2023-02-15T08:57:08;5.30;67.30
42227;DHT22;27892;52.378;13.122;2023-02-15T08:59:35;5.50;67.90
42227;DHT22;27892;52.378;13.122;2023-02-15T09:02:01;5.70;67.40
42227;DHT22;27892;52.378;13.122;2023-02-15T09:04:28;5.90;66.70
42227;DHT22;27892;52.378;13.122;2023-02-15T09:06:54;5.90;66.00
42227;DHT22;27892;52.378;13.122;2023-02-15T09:09:21;5.90;65.00
42227;DHT22;27892;52.378;13.122;2023-02-15T09:11:49;5.90;65.90
42227;DHT22;27892;52.378;13.122;2023-02-15T09:14:17;6.00;65.10
42227;DHT22;27892;52.378;13.122;2023-02-15T09:16:47;6.00;65.00
42227;DHT22;27892;52.378;13.122;2023-02-15T09:19:15;6.00;65.90
42227;DHT22;27892;52.378;13.122;2023-02-15T09:21:42;6.10;65.40
42227;DHT22;27892;52.378;13.122;2023-02-15T09:24:10;6.20;65.60
42227;DHT22;27892;52.378;13.122;2023-02-15T09:26:37;6.20;64.80
42227;DHT22;27892;52.378;13.122;2023-02-15T09:29:06;6.10;64.10
42227;DHT22;27892;52.378;13.122;2023-02-15T09:31:36;6.10;64.90
42227;DHT22;27892;52.378;13.122;2023-02-15T09:34:02;6.10;64.60
42227;DHT22;27892;52.378;13.122;2023-02-15T09:36:36;6.20;65.60
42227;DHT22;27892;52.378;13.122;2023-02-15T09:52:37;6.20;66.60
42227;DHT22;27892;52.378;13.122;2023-02-15T09:55:28;6.50;66.20
42227;DHT22;27892;52.378;13.122;2023-02-15T09:58:12;6.70;65.10
42227;DHT22;27892;52.378;13.122;2023-02-15T10:06:23;7.40;65.30
42227;DHT22;27892;52.378;13.122;2023-02-15T10:09:36;7.60;65.40
42227;DHT22;27892;52.378;13.122;2023-02-15T10:18:16;7.60;61.50
42227;DHT22;27892;52.378;13.122;2023-02-15T10:21:00;7.40;63.30
42227;DHT22;27892;52.378;13.122;2023-02-15T10:26:22;7.70;64.90
42227;DHT22;27892;52.378;13.122;2023-02-15T10:28:53;8.10;64.80
42227;DHT22;27892;52.378;13.122;2023-02-15T10:42:15;9.40;61.80
42227;DHT22;27892;52.378;13.122;2023-02-15T10:50:27;10.00;57.80
42227;DHT22;27892;52.378;13.122;2023-02-15T10:55:59;10.60;59.10
42227;DHT22;27892;52.378;13.122;2023-02-15T11:06:35;13.60;53.20
42227;DHT22;27892;52.378;13.122;2023-02-15T11:09:05;13.80;52.70
42227;DHT22;27892;52.378;13.122;2023-02-15T11:11:36;14.60;52.20
42227;DHT22;27892;52.378;13.122;2023-02-15T11:17:02;14.70;46.60
42227;DHT22;27892;52.378;13.122;2023-02-15T11:19:36;14.90;49.90
42227;DHT22;27892;52.378;13.122;2023-02-15T11:22:05;14.50;47.80
42227;DHT22;27892;52.378;13.122;2023-02-15T11:24:34;14.50;49.60
42227;DHT22;27892;52.378;13.122;2023-02-15T11:27:20;14.70;50.00
42227;DHT22;27892;52.378;13.122;2023-02-15T11:30:13;15.30;49.50
42227;DHT22;27892;52.378;13.122;2023-02-15T11:32:40;15.80;48.40
42227;DHT22;27892;52.378;13.122;2023-02-15T11:35:22;16.40;49.60
42227;DHT22;27892;52.378;13.122;2023-02-15T11:37:54;17.40;47.80
42227;DHT22;27892;52.378;13.122;2023-02-15T11:40:38;17.30;45.60
42227;DHT22;27892;52.378;13.122;2023-02-15T11:45:42;18.60;43.70
42227;DHT22;27892;52.378;13.122;2023-02-15T11:48:30;18.70;44.30
42227;DHT22;27892;52.378;13.122;2023-02-15T11:51:18;19.30;44.20
42227;DHT22;27892;52.378;13.122;2023-02-15T11:54:03;19.70;42.90
42227;DHT22;27892;52.378;13.122;2023-02-15T11:56:48;20.20;41.90
42227;DHT22;27892;52.378;13.122;2023-02-15T11:59:21;19.60;41.00
42227;DHT22;27892;52.378;13.122;2023-02-15T12:01:50;20.50;41.00
42227;DHT22;27892;52.378;13.122;2023-02-15T12:04:36;21.50;40.90
42227;DHT22;27892;52.378;13.122;2023-02-15T12:07:27;22.00;36.70
42227;DHT22;27892;52.378;13.122;2023-02-15T12:10:02;21.70;38.10
42227;DHT22;27892;52.378;13.122;2023-02-15T12:12:32;22.10;38.00
42227;DHT22;27892;52.378;13.122;2023-02-15T12:15:00;22.30;36.50
42227;DHT22;27892;52.378;13.122;2023-02-15T12:17:29;22.70;36.30
42227;DHT22;27892;52.378;13.122;2023-02-15T12:22:59;23.20;35.90
42227;DHT22;27892;52.378;13.122;2023-02-15T12:28:34;22.90;34.90
42227;DHT22;27892;52.378;13.122;2023-02-15T12:31:03;21.90;34.70
42227;DHT22;27892;52.378;13.122;2023-02-15T12:33:41;20.60;37.20
42227;DHT22;27892;52.378;13.122;2023-02-15T12:36:29;19.80;38.80
42227;DHT22;27892;52.378;13.122;2023-02-15T12:44:22;20.40;39.80
42227;DHT22;27892;52.378;13.122;2023-02-15T12:47:18;20.70;39.30
42227;DHT22;27892;52.378;13.122;2023-02-15T12:49:44;20.90;39.10
42227;DHT22;27892;52.378;13.122;2023-02-15T12:54:49;20.40;38.20
42227;DHT22;27892;52.378;13.122;2023-02-15T12:57:28;19.70;38.70
42227;DHT22;27892;52.378;13.122;2023-02-15T13:02:35;18.60;40.40
42227;DHT22;27892;52.378;13.122;2023-02-15T13:07:51;17.50;42.00
42227;DHT22;27892;52.378;13.122;2023-02-15T13:10:24;17.00;42.50
42227;DHT22;27892;52.378;13.122;2023-02-15T13:12:51;16.60;43.50
42227;DHT22;27892;52.378;13.122;2023-02-15T13:15:29;16.40;44.20
42227;DHT22;27892;52.378;13.122;2023-02-15T13:17:57;16.30;44.50
42227;DHT22;27892;52.378;13.122;2023-02-15T13:20:24;16.00;44.90
42227;DHT22;27892;52.378;13.122;2023-02-15T13:22:57;15.90;44.80
42227;DHT22;27892;52.378;13.122;2023-02-15T13:25:29;15.90;45.30
42227;DHT22;27892;52.378;13.122;2023-02-15T13:28:02;16.00;45.00
42227;DHT22;27892;52.378;13.122;2023-02-15T13:30:35;15.90;45.00
42227;DHT22;27892;52.378;13.122;2023-02-15T13:33:06;15.80;45.50
42227;DHT22;27892;52.378;13.122;2023-02-15T13:35:44;15.70;46.00
42227;DHT22;27892;52.378;13.122;2023-02-15T13:38:16;15.70;46.20
42227;DHT22;27892;52.378;13.122;2023-02-15T13:40:51;15.80;46.00
42227;DHT22;27892;52.378;13.122;2023-02-15T13:46:31;15.90;46.10
42227;DHT22;27892;52.378;13.122;2023-02-15T13:52:18;17.20;47.30
42227;DHT22;27892;52.378;13.122;2023-02-15T14:10:59;23.70;34.90
42227;DHT22;27892;52.378;13.122;2023-02-15T14:16:36;24.30;33.80
42227;DHT22;27892;52.378;13.122;2023-02-15T14:21:32;23.50;32.50
42227;DHT22;27892;52.378;13.122;2023-02-15T14:26:55;21.20;34.20
42227;DHT22;27892;52.378;13.122;2023-02-15T14:29:26;20.20;35.20
42227;DHT22;27892;52.378;13.122;2023-02-15T14:32:00;19.30;37.00
42227;DHT22;27892;52.378;13.122;2023-02-15T14:35:02;18.60;37.40
42227;DHT22;27892;52.378;13.122;2023-02-15T14:37:53;18.00;38.60
42227;DHT22;27892;52.378;13.122;2023-02-15T14:40:44;17.50;39.50
42227;DHT22;27892;52.378;13.122;2023-02-15T14:43:51;17.00;40.20
42227;DHT22;27892;52.378;13.122;2023-02-15T14:46:36;16.50;41.30
42227;DHT22;27892;52.378;13.122;2023-02-15T14:49:21;16.10;42.10
42227;DHT22;27892;52.378;13.122;2023-02-15T14:56:43;15.50;43.70
42227;DHT22;27892;52.378;13.122;2023-02-15T14:59:15;15.30;44.10
42227;DHT22;27892;52.378;13.122;2023-02-15T15:01:42;15.10;44.50
42227;DHT22;27892;52.378;13.122;2023-02-15T15:04:29;15.00;44.80
42227;DHT22;27892;52.378;13.122;2023-02-15T15:09:39;14.80;45.50
42227;DHT22;27892;52.378;13.122;2023-02-15T15:14:57;14.70;46.10
42227;DHT22;27892;52.378;13.122;2023-02-15T15:20:12;14.50;46.30
42227;DHT22;27892;52.378;13.122;2023-02-15T15:22:40;14.50;46.60
42227;DHT22;27892;52.378;13.122;2023-02-15T15:25:10;14.40;46.60
42227;DHT22;27892;52.378;13.122;2023-02-15T15:44:47;13.50;49.40
42227;DHT22;27892;52.378;13.122;2023-02-15T15:50:15;13.00;50.30
42227;DHT22;27892;52.378;13.122;2023-02-15T15:52:54;12.90;50.80
42227;DHT22;27892;52.378;13.122;2023-02-15T15:55:23;12.70;51.00
42227;DHT22;27892;52.378;13.122;2023-02-15T15:57:54;12.50;51.20
42227;DHT22;27892;52.378;13.122;2023-02-15T16:00:37;12.40;51.60
42227;DHT22;27892;52.378;13.122;2023-02-15T16:03:04;12.20;51.80
42227;DHT22;27892;52.378;13.122;2023-02-15T16:05:39;12.00;52.00
42227;DHT22;27892;52.378;13.122;2023-02-15T16:08:05;11.90;52.30
42227;DHT22;27892;52.378;13.122;2023-02-15T16:10:32;11.70;52.60
42227;DHT22;27892;52.378;13.122;2023-02-15T16:12:59;11.60;53.00
42227;DHT22;27892;52.378;13.122;2023-02-15T16:15:46;11.50;53.10
42227;DHT22;27892;52.378;13.122;2023-02-15T16:18:22;11.30;53.30
42227;DHT22;27892;52.378;13.122;2023-02-15T16:20:54;11.10;53.30
42227;DHT22;27892;52.378;13.122;2023-02-15T16:26:29;10.80;54.00
42227;DHT22;27892;52.378;13.122;2023-02-15T16:28:58;10.60;54.10
42227;DHT22;27892;52.378;13.122;2023-02-15T16:31:24;10.50;54.20
42227;DHT22;27892;52.378;13.122;2023-02-15T16:33:53;10.30;54.30
42227;DHT22;27892;52.378;13.122;2023-02-15T16:41:13;10.00;55.00
42227;DHT22;27892;52.378;13.122;2023-02-15T16:43:40;9.90;56.10
42227;DHT22;27892;52.378;13.122;2023-02-15T16:46:13;9.80;56.10
42227;DHT22;27892;52.378;13.122;2023-02-15T16:48:43;9.60;56.30
42227;DHT22;27892;52.378;13.122;2023-02-15T16:51:20;9.50;56.40
42227;DHT22;27892;52.378;13.122;2023-02-15T16:53:47;9.40;56.70
42227;DHT22;27892;52.378;13.122;2023-02-15T16:56:14;9.40;56.90
42227;DHT22;27892;52.378;13.122;2023-02-15T16:58:42;9.20;57.00
42227;DHT22;27892;52.378;13.122;2023-02-15T17:01:11;9.10;57.40
42227;DHT22;27892;52.378;13.122;2023-02-15T17:03:37;9.00;57.60
42227;DHT22;27892;52.378;13.122;2023-02-15T17:06:24;8.90;57.80
42227;DHT22;27892;52.378;13.122;2023-02-15T17:09:05;8.80;58.10
42227;DHT22;27892;52.378;13.122;2023-02-15T17:11:42;8.80;58.30
42227;DHT22;27892;52.378;13.122;2023-02-15T17:19:29;8.60;58.40
42227;DHT22;27892;52.378;13.122;2023-02-15T17:22:06;8.50;58.60
42227;DHT22;27892;52.378;13.122;2023-02-15T17:24:40;8.50;58.80
42227;DHT22;27892;52.378;13.122;2023-02-15T17:27:28;8.40;59.00
42227;DHT22;27892;52.378;13.122;2023-02-15T17:29:59;8.40;59.20
42227;DHT22;27892;52.378;13.122;2023-02-15T17:32:28;8.40;59.60
42227;DHT22;27892;52.378;13.122;2023-02-15T17:34:58;8.30;58.90
42227;DHT22;27892;52.378;13.122;2023-02-15T17:40:35;8.20;59.10
42227;DHT22;27892;52.378;13.122;2023-02-15T17:43:01;8.00;59.20
42227;DHT22;27892;52.378;13.122;2023-02-15T17:45:43;7.90;59.40
42227;DHT22;27892;52.378;13.122;2023-02-15T17:48:20;7.80;59.60
42227;DHT22;27892;52.378;13.122;2023-02-15T17:50:46;7.70;59.90
42227;DHT22;27892;52.378;13.122;2023-02-15T17:53:13;7.70;60.00
42227;DHT22;27892;52.378;13.122;2023-02-15T17:55:41;7.70;60.30
42227;DHT22;27892;52.378;13.122;2023-02-15T17:58:13;7.70;60.30
42227;DHT22;27892;52.378;13.122;2023-02-15T18:00:56;7.70;60.30
42227;DHT22;27892;52.378;13.122;2023-02-15T18:03:45;7.60;60.30
42227;DHT22;27892;52.378;13.122;2023-02-15T18:06:30;7.50;60.40
42227;DHT22;27892;52.378;13.122;2023-02-15T18:09:17;7.50;60.60
42227;DHT22;27892;52.378;13.122;2023-02-15T18:12:01;7.40;60.50
42227;DHT22;27892;52.378;13.122;2023-02-15T18:14:28;7.30;60.90
42227;DHT22;27892;52.378;13.122;2023-02-15T18:17:03;7.30;60.90
42227;DHT22;27892;52.378;13.122;2023-02-15T18:19:38;7.20;61.10
42227;DHT22;27892;52.378;13.122;2023-02-15T18:22:12;7.10;61.40
42227;DHT22;27892;52.378;13.122;2023-02-15T18:24:38;7.10;61.50
42227;DHT22;27892;52.378;13.122;2023-02-15T18:27:04;7.10;61.50
42227;DHT22;27892;52.378;13.122;2023-02-15T18:29:30;7.00;61.30
42227;DHT22;27892;52.378;13.122;2023-02-15T18:31:57;7.00;61.50
42227;DHT22;27892;52.378;13.122;2023-02-15T18:34:28;6.90;61.60
42227;DHT22;27892;52.378;13.122;2023-02-15T18:36:55;6.90;61.80
42227;DHT22;27892;52.378;13.122;2023-02-15T18:39:44;6.80;61.90
42227;DHT22;27892;52.378;13.122;2023-02-15T18:42:20;6.80;62.20
42227;DHT22;27892;52.378;13.122;2023-02-15T18:44:47;6.80;62.30
42227;DHT22;27892;52.378;13.122;2023-02-15T18:47:12;6.80;62.30
42227;DHT22;27892;52.378;13.122;2023-02-15T18:49:38;6.80;62.30
42227;DHT22;27892;52.378;13.122;2023-02-15T18:52:04;6.70;62.20
42227;DHT22;27892;52.378;13.122;2023-02-15T18:54:30;6.60;62.30
42227;DHT22;27892;52.378;13.122;2023-02-15T18:56:57;6.60;62.20